Time;durP1;ratioP1;P1;durP2;ratioP2;P2;SDS_P1;SDS_P2;PMS_P1;PMS_P2;Temp;Humidity;BMP_temperature;BMP_pressure;BME280_temperature;BME280_humidity;BME280_pressure;Samples;Min_cycle;Max_cycle;Signal;HPM_P1;HPM_P2
2021/10/15 00:00:16;;;;;;;0.15;0.15;;;8.50;99.90;;;;;;5053502;28;20469;-79
2021/10/15 00:02:42;;;;;;;0.00;0.00;;;8.40;99.90;;;;;;5053576;28;20021;-79
2021/10/15 00:05:08;;;;;;;0.38;0.08;;;8.40;99.90;;;;;;5053482;28;20064;-80
2021/10/15 00:07:34;;;;;;;0.00;0.00;;;8.40;99.90;;;;;;5053691;28;20025;-79
2021/10/15 00:10:00;;;;;;;0.20;0.20;;;8.30;99.90;;;;;;5052218;28;20480;-80
2021/10/15 00:12:25;;;;;;;0.08;0.08;;;8.30;99.90;;;;;;5053516;28;20037;-79
2021/10/15 00:14:51;;;;;;;7.05;0.38;;;8.30;99.90;;;;;;5053346;28;20033;-79
2021/10/15 00:17:17;;;;;;;0.00;0.00;;;8.20;99.90;;;;;;5053435;28;20493;-79
2021/10/15 00:19:43;;;;;;;0.10;0.10;;;8.20;99.90;;;;;;5053379;28;20567;-79
2021/10/15 00:22:09;;;;;;;0.93;0.63;;;8.20;99.90;;;;;;5053359;28;20052;-79
2021/10/15 00:24:35;;;;;;;0.63;0.63;;;8.20;99.90;;;;;;5053074;28;20049;-79
2021/10/15 00:27:01;;;;;;;0.00;0.00;;;8.20;99.90;;;;;;5051714;28;20017;-79
2021/10/15 00:29:26;;;;;;;0.00;0.00;;;8.10;99.90;;;;;;5051560;28;20025;-79
2021/10/15 00:31:53;;;;;;;0.85;0.20;;;8.10;99.90;;;;;;5053087;28;20416;-79
2021/10/15 00:34:19;;;;;;;0.00;0.00;;;8.10;99.90;;;;;;5052855;28;20040;-80
2021/10/15 00:36:45;;;;;;;0.00;0.00;;;8.20;99.90;;;;;;5052982;28;20028;-80
2021/10/15 00:39:11;;;;;;;1.17;0.75;;;8.10;99.90;;;;;;5051669;28;20017;-79
2021/10/15 00:41:36;;;;;;;0.63;0.63;;;8.10;99.90;;;;;;5052947;28;20028;-79
2021/10/15 00:44:09;;;;;;;0.05;0.05;;;8.20;99.90;;;;;;5052793;28;20022;-80
2021/10/15 00:46:37;;;;;;;0.45;0.40;;;8.10;99.90;;;;;;5052913;28;20052;-79
2021/10/15 00:49:07;;;;;;;0.00;0.00;;;8.20;99.90;;;;;;5052890;28;20040;-77
2021/10/15 00:51:33;;;;;;;0.43;0.17;;;8.20;99.90;;;;;;5052512;28;20488;-79
2021/10/15 00:54:01;;;;;;;0.20;0.20;;;8.20;99.90;;;;;;5048498;28;20077;-79
2021/10/15 00:56:31;;;;;;;0.00;0.00;;;8.20;99.90;;;;;;5032900;28;20037;-79
2021/10/15 00:59:00;;;;;;;0.28;0.28;;;8.20;99.90;;;;;;5031536;28;20078;-79
2021/10/15 01:01:26;;;;;;;0.10;0.10;;;8.10;99.90;;;;;;5032831;28;20021;-80
2021/10/15 01:03:52;;;;;;;0.00;0.00;;;8.10;99.90;;;;;;5031527;28;20022;-79
2021/10/15 01:06:17;;;;;;;0.03;0.03;;;8.20;99.90;;;;;;5032672;28;20126;-79
2021/10/15 01:08:48;;;;;;;0.57;0.57;;;8.20;99.90;;;;;;5032852;28;20029;-79
2021/10/15 01:11:15;;;;;;;0.30;0.30;;;8.20;99.90;;;;;;5031947;28;20084;-79
2021/10/15 01:13:41;;;;;;;0.00;0.00;;;8.20;99.90;;;;;;5032633;28;20480;-79
2021/10/15 01:16:09;;;;;;;3.03;1.45;;;8.20;99.90;;;;;;5032741;28;20041;-79
2021/10/15 01:18:36;;;;;;;0.00;0.00;;;8.20;99.90;;;;;;5032536;28;20116;-80
2021/10/15 01:21:04;;;;;;;0.13;0.10;;;8.10;99.90;;;;;;5032494;28;20018;-79
2021/10/15 01:23:29;;;;;;;0.10;0.10;;;8.00;99.90;;;;;;5032640;28;20029;-79
2021/10/15 01:25:55;;;;;;;0.20;0.20;;;7.90;99.90;;;;;;5032651;28;20049;-80
2021/10/15 01:28:27;;;;;;;0.20;0.20;;;7.90;99.90;;;;;;5032086;28;20057;-79
2021/10/15 01:30:53;;;;;;;0.45;0.43;;;7.80;99.90;;;;;;5032781;28;20056;-79
2021/10/15 01:33:19;;;;;;;4.32;0.45;;;7.80;99.90;;;;;;5032533;28;20461;-79
2021/10/15 01:35:46;;;;;;;0.10;0.10;;;7.70;99.90;;;;;;5032569;28;20060;-79
2021/10/15 01:38:12;;;;;;;16.80;0.52;;;7.70;99.90;;;;;;5032407;28;20420;-79
2021/10/15 01:40:38;;;;;;;0.00;0.00;;;7.70;99.90;;;;;;5032565;28;20391;-79
2021/10/15 01:43:04;;;;;;;0.13;0.13;;;7.60;99.90;;;;;;5032389;28;20095;-79
2021/10/15 01:45:31;;;;;;;0.38;0.20;;;7.60;99.90;;;;;;5032465;28;20503;-79
2021/10/15 01:47:58;;;;;;;0.63;0.63;;;7.50;99.90;;;;;;5032244;28;20025;-79
2021/10/15 01:50:26;;;;;;;0.00;0.00;;;7.50;99.90;;;;;;5031048;28;20401;-79
2021/10/15 01:52:52;;;;;;;0.35;0.05;;;7.50;99.90;;;;;;5032135;28;20025;-80
2021/10/15 01:55:18;;;;;;;0.47;0.47;;;7.50;99.90;;;;;;5047338;28;20021;-79
2021/10/15 01:57:44;;;;;;;0.10;0.10;;;7.50;99.90;;;;;;5052150;28;20383;-79
2021/10/15 02:00:12;;;;;;;0.00;0.00;;;7.50;99.90;;;;;;5052147;28;20036;-79
2021/10/15 02:02:38;;;;;;;0.10;0.10;;;7.60;99.90;;;;;;5052092;28;20484;-79
2021/10/15 02:05:06;;;;;;;0.28;0.28;;;7.50;99.90;;;;;;5052199;28;20495;-79
2021/10/15 02:07:31;;;;;;;1.10;0.35;;;7.50;99.90;;;;;;5052111;28;20025;-79
2021/10/15 02:09:57;;;;;;;0.00;0.00;;;7.50;99.90;;;;;;5052129;28;20029;-79
2021/10/15 02:12:23;;;;;;;0.10;0.10;;;7.50;99.90;;;;;;5054326;28;20484;-79
2021/10/15 02:14:48;;;;;;;0.30;0.28;;;7.50;99.90;;;;;;5055463;28;20162;-79
2021/10/15 02:17:14;;;;;;;0.55;0.22;;;7.50;99.90;;;;;;5055547;28;20139;-79
2021/10/15 02:19:40;;;;;;;1.40;1.23;;;7.50;99.90;;;;;;5055453;28;20423;-79
2021/10/15 02:22:05;;;;;;;0.00;0.00;;;7.40;99.90;;;;;;5054199;28;20025;-80
2021/10/15 02:24:31;;;;;;;0.00;0.00;;;7.40;99.90;;;;;;5055326;28;20029;-79
2021/10/15 02:26:57;;;;;;;0.00;0.00;;;7.40;99.90;;;;;;5055411;28;20079;-80
2021/10/15 02:29:23;;;;;;;0.30;0.28;;;7.40;99.90;;;;;;5054783;28;20025;-79
2021/10/15 02:31:50;;;;;;;0.00;0.00;;;7.40;99.90;;;;;;5054863;28;20397;-80
2021/10/15 02:34:17;;;;;;;0.30;0.30;;;7.40;99.90;;;;;;5055418;28;20036;-79
2021/10/15 02:36:43;;;;;;;0.65;0.50;;;7.40;99.90;;;;;;5055101;28;20044;-79
2021/10/15 02:39:09;;;;;;;0.00;0.00;;;7.40;99.90;;;;;;5055162;28;20025;-79
2021/10/15 02:41:37;;;;;;;0.45;0.45;;;7.30;99.90;;;;;;5053770;28;20025;-79
2021/10/15 02:44:05;;;;;;;0.93;0.90;;;7.30;99.90;;;;;;5055255;28;20017;-79
2021/10/15 02:46:31;;;;;;;0.30;0.30;;;7.30;99.90;;;;;;5054906;28;20052;-79
2021/10/15 02:48:56;;;;;;;0.10;0.10;;;7.20;99.90;;;;;;5055073;28;20059;-80
2021/10/15 02:51:22;;;;;;;2.38;1.63;;;7.20;99.90;;;;;;5054555;28;20037;-79
2021/10/15 02:53:48;;;;;;;0.43;0.17;;;7.20;99.90;;;;;;5054803;28;20029;-79
2021/10/15 02:56:13;;;;;;;1.05;0.52;;;7.20;99.90;;;;;;5054868;28;20025;-79
2021/10/15 02:58:39;;;;;;;0.00;0.00;;;7.10;99.90;;;;;;5054987;28;20504;-79
2021/10/15 03:01:05;;;;;;;0.25;0.25;;;7.10;99.90;;;;;;5054586;28;20029;-79
2021/10/15 03:03:30;;;;;;;0.08;0.08;;;7.20;99.90;;;;;;5054514;28;20472;-80
2021/10/15 03:05:56;;;;;;;0.77;0.35;;;7.20;99.90;;;;;;5054741;28;20029;-80
2021/10/15 03:08:22;;;;;;;0.13;0.13;;;7.20;99.90;;;;;;5054598;28;20029;-79
2021/10/15 03:10:47;;;;;;;0.32;0.30;;;7.30;99.90;;;;;;5054648;28;20452;-79
2021/10/15 03:13:13;;;;;;;0.13;0.13;;;7.40;99.90;;;;;;5054568;28;20020;-79
2021/10/15 03:15:39;;;;;;;0.10;0.10;;;7.40;99.90;;;;;;5054512;28;20036;-79
2021/10/15 03:18:04;;;;;;;0.00;0.00;;;7.40;99.90;;;;;;5054386;28;20025;-79
2021/10/15 03:20:30;;;;;;;0.00;0.00;;;7.50;99.90;;;;;;5054415;28;20488;-79
2021/10/15 03:22:55;;;;;;;2.13;0.40;;;7.50;99.90;;;;;;5053531;28;20025;-79
2021/10/15 03:25:21;;;;;;;0.08;0.08;;;7.60;99.90;;;;;;5054036;28;20155;-79
2021/10/15 03:27:47;;;;;;;0.10;0.10;;;7.50;99.90;;;;;;5054060;28;20502;-79
2021/10/15 03:30:12;;;;;;;0.20;0.20;;;7.50;99.90;;;;;;5053224;28;20404;-80
2021/10/15 03:32:38;;;;;;;0.00;0.00;;;7.50;99.90;;;;;;5054141;28;20025;-80
2021/10/15 03:35:04;;;;;;;0.13;0.13;;;7.40;99.90;;;;;;5054142;28;20029;-79
2021/10/15 03:37:30;;;;;;;0.00;0.00;;;7.40;99.90;;;;;;5054107;28;20028;-79
2021/10/15 03:39:55;;;;;;;0.80;0.30;;;7.40;99.90;;;;;;5053973;28;20032;-79
2021/10/15 03:42:21;;;;;;;0.00;0.00;;;7.40;99.90;;;;;;5054002;28;20025;-80
2021/10/15 03:44:46;;;;;;;2.50;0.95;;;7.40;99.90;;;;;;5053906;28;20028;-80
2021/10/15 03:47:12;;;;;;;0.00;0.00;;;7.30;99.90;;;;;;5053958;28;20108;-80
2021/10/15 03:49:39;;;;;;;0.00;0.00;;;7.30;99.90;;;;;;5053754;28;20036;-80
2021/10/15 03:52:05;;;;;;;0.20;0.20;;;7.30;99.90;;;;;;5052908;28;20467;-80
2021/10/15 03:54:31;;;;;;;0.10;0.10;;;7.20;99.90;;;;;;5063998;28;20111;-80
2021/10/15 03:56:57;;;;;;;0.10;0.10;;;7.20;99.90;;;;;;5056009;28;20470;-79
2021/10/15 03:59:22;;;;;;;1.15;0.10;;;7.20;99.90;;;;;;5053633;28;20025;-79
2021/10/15 04:01:48;;;;;;;0.65;0.52;;;7.30;99.90;;;;;;5053457;28;20029;-79
2021/10/15 04:04:14;;;;;;;0.10;0.10;;;7.30;99.90;;;;;;5053359;28;20020;-77
2021/10/15 04:06:39;;;;;;;1.30;0.22;;;7.30;99.90;;;;;;5053162;28;20388;-80
2021/10/15 04:09:05;;;;;;;0.65;0.40;;;7.30;99.90;;;;;;5053492;28;20035;-80
2021/10/15 04:11:31;;;;;;;0.10;0.10;;;7.30;99.90;;;;;;5052305;28;20033;-79
2021/10/15 04:13:58;;;;;;;0.95;0.60;;;7.30;99.90;;;;;;5053621;28;20099;-80
2021/10/15 04:16:25;;;;;;;0.20;0.20;;;7.30;99.90;;;;;;5053042;28;20016;-80
2021/10/15 04:18:50;;;;;;;1.88;0.20;;;7.30;99.90;;;;;;5053095;28;20127;-79
2021/10/15 04:21:16;;;;;;;0.10;0.10;;;7.30;99.90;;;;;;5053226;28;20472;-79
2021/10/15 04:23:42;;;;;;;0.15;0.15;;;7.20;99.90;;;;;;5053726;28;20386;-80
2021/10/15 04:26:08;;;;;;;0.00;0.00;;;7.20;99.90;;;;;;5052998;28;20460;-79
2021/10/15 04:28:34;;;;;;;0.00;0.00;;;7.20;99.90;;;;;;5053149;28;20561;-79
2021/10/15 04:31:00;;;;;;;0.20;0.20;;;7.20;99.90;;;;;;5052339;28;20116;-81
2021/10/15 04:33:25;;;;;;;0.52;0.13;;;7.20;99.90;;;;;;5052323;28;20029;-80
2021/10/15 04:35:51;;;;;;;0.00;0.00;;;7.20;99.90;;;;;;5052969;28;20028;-80
2021/10/15 04:38:17;;;;;;;0.10;0.10;;;7.20;99.90;;;;;;5053064;28;20024;-79
2021/10/15 04:40:43;;;;;;;0.00;0.00;;;7.20;99.90;;;;;;5052232;28;20545;-79
2021/10/15 04:43:09;;;;;;;0.47;0.47;;;7.20;99.90;;;;;;5052916;28;20024;-80
2021/10/15 04:45:34;;;;;;;0.00;0.00;;;7.30;99.90;;;;;;5053076;28;20106;-79
2021/10/15 04:48:00;;;;;;;1.00;0.20;;;7.30;99.90;;;;;;5052794;28;20021;-79
2021/10/15 04:50:26;;;;;;;0.10;0.10;;;7.30;99.90;;;;;;5053088;28;20102;-80
2021/10/15 04:52:51;;;;;;;0.10;0.10;;;7.30;99.90;;;;;;5052447;28;20021;-80
2021/10/15 04:55:17;;;;;;;0.40;0.38;;;7.30;99.90;;;;;;5053979;28;20104;-79
2021/10/15 04:57:43;;;;;;;0.52;0.05;;;7.30;99.90;;;;;;5050631;28;20029;-79
2021/10/15 05:00:09;;;;;;;0.65;0.30;;;7.30;99.90;;;;;;5052107;28;20099;-79
2021/10/15 05:02:40;;;;;;;0.00;0.00;;;7.30;99.90;;;;;;5052561;28;20073;-80
2021/10/15 05:05:07;;;;;;;0.30;0.30;;;7.30;99.90;;;;;;5052653;28;20037;-80
2021/10/15 05:07:33;;;;;;;0.00;0.00;;;7.30;99.90;;;;;;5052413;28;20056;-80
2021/10/15 05:09:59;;;;;;;0.10;0.10;;;7.30;99.90;;;;;;5052529;28;20108;-80
2021/10/15 05:12:24;;;;;;;0.00;0.00;;;7.30;99.90;;;;;;5052888;28;20095;-79
2021/10/15 05:14:50;;;;;;;0.20;0.20;;;7.50;99.90;;;;;;5052519;28;20079;-79
2021/10/15 05:17:16;;;;;;;0.00;0.00;;;7.50;99.90;;;;;;5051076;28;20368;-80
2021/10/15 05:19:42;;;;;;;0.00;0.00;;;7.60;99.90;;;;;;5052502;28;20025;-80
2021/10/15 05:22:08;;;;;;;0.20;0.20;;;7.60;99.90;;;;;;5052441;28;20025;-79
2021/10/15 05:24:33;;;;;;;0.00;0.00;;;7.70;99.90;;;;;;5052196;28;20446;-79
2021/10/15 05:26:59;;;;;;;0.22;0.22;;;7.70;99.90;;;;;;5052407;28;20028;-79
2021/10/15 05:29:25;;;;;;;0.17;0.17;;;7.70;99.90;;;;;;5052491;28;20025;-79
2021/10/15 05:31:50;;;;;;;0.10;0.10;;;7.70;99.90;;;;;;5052223;28;20079;-80
2021/10/15 05:34:17;;;;;;;2.22;1.52;;;7.60;99.90;;;;;;5052362;28;20033;-79
2021/10/15 05:36:42;;;;;;;0.45;0.45;;;7.60;99.90;;;;;;5052298;28;20074;-79
2021/10/15 05:39:08;;;;;;;2.15;1.05;;;7.70;99.90;;;;;;5052326;28;20438;-79
2021/10/15 05:41:34;;;;;;;0.00;0.00;;;7.60;99.90;;;;;;5052357;28;20468;-79
2021/10/15 05:44:00;;;;;;;0.63;0.60;;;7.60;99.90;;;;;;5052350;28;20074;-80
2021/10/15 05:46:25;;;;;;;4.18;2.45;;;7.50;99.90;;;;;;5053084;28;20078;-80
2021/10/15 05:48:51;;;;;;;0.03;0.03;;;7.50;99.90;;;;;;5056124;28;20029;-80
2021/10/15 05:51:17;;;;;;;0.00;0.00;;;7.40;99.90;;;;;;5054258;28;20025;-79
2021/10/15 05:53:43;;;;;;;1.90;1.10;;;7.40;99.90;;;;;;5055306;28;20025;-79
2021/10/15 05:58:53;;;;;;;0.00;0.00;;;7.40;99.90;;;;;;5067507;28;20032;-79
2021/10/15 06:01:25;;;;;;;0.00;0.00;;;7.30;99.90;;;;;;5071386;28;20436;-79
2021/10/15 06:04:04;;;;;;;0.80;0.80;;;7.20;99.90;;;;;;5048706;28;20050;-79
2021/10/15 06:14:28;;;;;;;0.00;0.00;;;7.10;99.90;;;;;;5055803;28;20059;-78
2021/10/15 06:16:57;;;;;;;0.70;0.55;;;7.10;99.90;;;;;;5055020;28;20021;-80
2021/10/15 06:19:27;;;;;;;3.17;0.73;;;7.10;99.90;;;;;;5054884;28;20438;-79
2021/10/15 06:21:53;;;;;;;0.75;0.68;;;7.20;99.90;;;;;;5055987;28;20017;-79
2021/10/15 06:24:19;;;;;;;0.20;0.20;;;7.10;99.90;;;;;;5066177;28;20065;-79
2021/10/15 06:26:46;;;;;;;0.63;0.63;;;7.20;99.90;;;;;;5063371;28;20079;-77
2021/10/15 06:29:12;;;;;;;0.10;0.10;;;7.10;99.90;;;;;;5059640;28;20585;-80
2021/10/15 06:31:38;;;;;;;0.47;0.35;;;7.10;99.90;;;;;;5049854;28;20035;-79
2021/10/15 06:34:04;;;;;;;1.83;1.13;;;7.20;99.90;;;;;;5054319;28;20383;-79
2021/10/15 06:36:29;;;;;;;0.70;0.70;;;7.10;99.90;;;;;;5044284;28;20043;-77
2021/10/15 06:38:55;;;;;;;0.00;0.00;;;7.10;99.90;;;;;;5038977;28;20036;-77
2021/10/15 06:41:21;;;;;;;0.10;0.10;;;7.10;99.90;;;;;;5051088;28;20487;-77
2021/10/15 06:43:47;;;;;;;0.30;0.17;;;7.10;99.90;;;;;;5054458;28;20025;-77
2021/10/15 06:46:13;;;;;;;0.00;0.00;;;7.10;99.90;;;;;;5053618;28;20028;-77
2021/10/15 06:48:39;;;;;;;1.30;1.20;;;7.10;99.90;;;;;;5050867;28;20496;-78
2021/10/15 06:51:05;;;;;;;0.30;0.10;;;7.10;99.90;;;;;;5050072;28;20060;-76
2021/10/15 06:53:31;;;;;;;1.70;0.55;;;7.10;99.90;;;;;;5052669;28;20052;-76
2021/10/15 06:55:56;;;;;;;0.35;0.30;;;7.20;99.90;;;;;;5051072;28;20032;-76
2021/10/15 06:58:22;;;;;;;0.00;0.00;;;7.30;99.90;;;;;;5051700;28;20036;-77
2021/10/15 07:00:48;;;;;;;0.85;0.50;;;7.40;99.90;;;;;;5055495;28;20021;-77
2021/10/15 07:03:15;;;;;;;0.00;0.00;;;7.40;99.90;;;;;;5056474;28;20037;-77
2021/10/15 07:05:41;;;;;;;2.00;1.02;;;7.50;99.90;;;;;;5051388;28;20021;-77
2021/10/15 07:08:07;;;;;;;4.40;1.65;;;7.60;99.90;;;;;;5050698;28;20028;-77
2021/10/15 07:10:33;;;;;;;3.65;1.50;;;7.60;99.90;;;;;;5036899;28;20048;-77
2021/10/15 07:12:58;;;;;;;0.00;0.00;;;7.60;99.90;;;;;;5046101;28;20469;-77
2021/10/15 07:15:24;;;;;;;12.82;1.27;;;7.60;99.90;;;;;;5062056;28;20052;-76
2021/10/15 07:17:50;;;;;;;4.97;1.40;;;7.60;99.90;;;;;;5052522;28;20048;-76
2021/10/15 07:20:15;;;;;;;0.00;0.00;;;7.60;99.90;;;;;;5057287;28;20024;-77
2021/10/15 07:22:41;;;;;;;1.50;0.30;;;7.70;99.90;;;;;;5071253;28;20005;-77
2021/10/15 07:25:09;;;;;;;0.30;0.30;;;7.70;99.90;;;;;;5078693;28;20040;-77
2021/10/15 07:27:35;;;;;;;0.20;0.20;;;7.60;99.90;;;;;;5071133;28;20013;-78
2021/10/15 07:30:04;;;;;;;0.03;0.03;;;7.60;99.90;;;;;;5074752;28;20005;-78
2021/10/15 07:32:30;;;;;;;0.10;0.10;;;7.50;99.90;;;;;;5076119;28;20085;-77
2021/10/15 07:34:55;;;;;;;0.45;0.45;;;7.50;99.90;;;;;;5079090;28;20017;-78
2021/10/15 07:37:21;;;;;;;0.40;0.40;;;8.00;99.90;;;;;;5072406;28;20021;-78
2021/10/15 07:39:47;;;;;;;0.47;0.47;;;10.20;99.90;;;;;;5077832;28;20101;-77
2021/10/15 07:42:12;;;;;;;1.88;0.95;;;10.60;99.90;;;;;;5075507;28;20001;-79
2021/10/15 07:44:38;;;;;;;0.00;0.00;;;9.90;99.90;;;;;;5053263;28;20131;-78
2021/10/15 07:47:04;;;;;;;1.00;0.22;;;9.50;99.90;;;;;;5053499;28;20028;-78
2021/10/15 07:49:29;;;;;;;0.90;0.90;;;9.40;99.90;;;;;;5054498;28;20025;-79
2021/10/15 07:51:55;;;;;;;1.45;0.25;;;9.30;99.90;;;;;;5057142;28;20095;-77
2021/10/15 07:54:21;;;;;;;0.00;0.00;;;9.60;99.90;;;;;;5048716;28;20035;-77
2021/10/15 07:56:47;;;;;;;0.28;0.28;;;9.60;99.90;;;;;;5052213;28;20100;-77
2021/10/15 07:59:13;;;;;;;0.00;0.00;;;9.40;99.90;;;;;;5051693;28;20083;-77
2021/10/15 08:01:38;;;;;;;3.53;1.38;;;9.30;99.90;;;;;;5051378;28;20021;-79
2021/10/15 08:04:04;;;;;;;0.28;0.28;;;9.40;99.90;;;;;;5053047;28;20016;-77
2021/10/15 08:06:30;;;;;;;0.15;0.15;;;9.50;99.90;;;;;;5052177;28;20025;-78
2021/10/15 08:08:56;;;;;;;0.00;0.00;;;9.70;99.90;;;;;;5051242;28;20055;-78
2021/10/15 08:11:22;;;;;;;1.02;0.47;;;9.90;99.90;;;;;;5051990;28;20029;-79
2021/10/15 08:13:47;;;;;;;0.10;0.10;;;10.20;99.90;;;;;;5052365;28;20112;-78
2021/10/15 08:16:13;;;;;;;0.60;0.52;;;10.50;99.90;;;;;;5050559;28;20100;-78
2021/10/15 08:18:39;;;;;;;0.10;0.10;;;10.80;99.90;;;;;;5042369;28;20136;-78
2021/10/15 08:21:05;;;;;;;0.00;0.00;;;11.20;99.90;;;;;;5052807;28;20056;-78
2021/10/15 08:23:31;;;;;;;0.50;0.30;;;11.80;99.90;;;;;;5052183;28;20460;-78
2021/10/15 08:25:57;;;;;;;0.10;0.10;;;12.60;99.90;;;;;;5052527;28;20075;-79
2021/10/15 08:28:24;;;;;;;0.10;0.05;;;13.50;99.90;;;;;;5052276;28;20074;-78
2021/10/15 08:30:50;;;;;;;1.45;0.38;;;13.40;99.90;;;;;;5052351;28;20033;-79
2021/10/15 08:33:16;;;;;;;0.13;0.13;;;13.00;99.90;;;;;;5048484;28;20037;-78
2021/10/15 08:35:41;;;;;;;0.40;0.40;;;12.80;99.90;;;;;;5052084;28;20037;-77
2021/10/15 08:38:07;;;;;;;1.80;1.67;;;12.70;99.90;;;;;;5049834;28;20025;-77
2021/10/15 08:40:33;;;;;;;0.20;0.20;;;12.90;99.90;;;;;;5052737;28;20017;-77
2021/10/15 08:42:58;;;;;;;0.65;0.65;;;13.00;99.90;;;;;;5050327;28;20035;-78
2021/10/15 08:45:29;;;;;;;0.20;0.20;;;13.40;99.90;;;;;;5052413;28;20100;-79
2021/10/15 08:47:56;;;;;;;0.50;0.43;;;13.50;99.90;;;;;;5049482;28;20025;-77
2021/10/15 08:50:22;;;;;;;2.35;0.80;;;13.70;99.90;;;;;;5038709;28;20032;-78
2021/10/15 08:52:49;;;;;;;0.73;0.63;;;14.10;99.90;;;;;;5050383;28;20031;-77
2021/10/15 08:55:15;;;;;;;0.57;0.57;;;14.30;99.90;;;;;;5037143;28;20083;-79
2021/10/15 08:57:51;;;;;;;0.22;0.22;;;14.60;99.90;;;;;;5071761;28;20035;-80
2021/10/15 09:00:27;;;;;;;1.55;0.52;;;15.10;99.90;;;;;;5050380;28;20025;-80
2021/10/15 09:03:19;;;;;;;0.10;0.10;;;15.40;99.90;;;;;;5052083;28;20104;-80
2021/10/15 09:06:00;;;;;;;0.40;0.40;;;15.90;99.70;;;;;;5052300;28;20496;-80
2021/10/15 09:08:55;;;;;;;0.85;0.35;;;16.40;99.10;;;;;;5051712;28;20039;-81
2021/10/15 09:11:27;;;;;;;1.30;1.10;;;16.60;99.10;;;;;;5051163;28;20045;-80
2021/10/15 09:14:06;;;;;;;0.45;0.45;;;17.00;99.60;;;;;;5051909;28;20400;-81
2021/10/15 09:16:53;;;;;;;0.77;0.50;;;18.60;97.20;;;;;;5050136;28;20025;-81
2021/10/15 09:19:33;;;;;;;0.32;0.32;;;20.40;94.10;;;;;;5052006;28;20500;-81
2021/10/15 09:22:26;;;;;;;0.55;0.55;;;20.90;92.50;;;;;;5059057;28;20078;-80
2021/10/15 09:24:53;;;;;;;3.35;0.43;;;20.80;92.10;;;;;;5059690;28;20056;-81
2021/10/15 09:27:29;;;;;;;2.00;0.90;;;20.60;91.90;;;;;;5072419;28;20506;-81
2021/10/15 09:29:58;;;;;;;0.98;0.73;;;20.40;92.10;;;;;;5059504;28;20074;-81
2021/10/15 09:32:26;;;;;;;1.58;0.75;;;20.00;92.30;;;;;;5055897;28;20083;-81
2021/10/15 09:34:53;;;;;;;0.25;0.22;;;19.30;93.30;;;;;;5055727;28;20047;-81
2021/10/15 09:37:23;;;;;;;10.15;0.38;;;18.60;94.10;;;;;;5056003;28;20018;-82
2021/10/15 09:39:49;;;;;;;0.57;0.30;;;17.90;95.20;;;;;;5074654;28;20054;-80
2021/10/15 09:42:26;;;;;;;0.13;0.13;;;17.80;96.40;;;;;;5073792;28;20051;-80
2021/10/15 09:44:53;;;;;;;0.75;0.57;;;17.10;97.10;;;;;;5036324;28;20031;-80
2021/10/15 09:47:26;;;;;;;16.00;0.77;;;16.80;97.40;;;;;;5046202;28;20361;-80
2021/10/15 09:49:52;;;;;;;1.10;0.17;;;16.50;98.00;;;;;;5054902;28;20021;-80
2021/10/15 09:52:34;;;;;;;0.70;0.55;;;16.30;98.40;;;;;;5055398;28;20025;-80
2021/10/15 09:55:07;;;;;;;0.50;0.40;;;16.20;98.80;;;;;;5061123;28;20032;-80
2021/10/15 09:57:35;;;;;;;;;;;16.00;98.80;;;;;;5054334;28;20137;-80
2021/10/15 10:00:01;;;;;;;0.25;0.25;;;16.10;99.20;;;;;;5053944;28;19944;-80
2021/10/15 10:02:28;;;;;;;5.07;0.70;;;16.10;98.60;;;;;;5054951;28;20488;-79
2021/10/15 10:04:55;;;;;;;0.90;0.52;;;16.20;98.90;;;;;;5050412;28;20047;-79
2021/10/15 10:07:23;;;;;;;0.40;0.40;;;16.20;98.60;;;;;;5052298;28;20029;-78
2021/10/15 10:09:48;;;;;;;0.22;0.22;;;16.20;98.50;;;;;;5052982;28;20047;-78
2021/10/15 10:12:15;;;;;;;0.90;0.63;;;16.10;98.90;;;;;;5051573;28;20021;-78
2021/10/15 10:14:41;;;;;;;2.67;0.43;;;16.10;98.60;;;;;;5051003;28;20047;-77
2021/10/15 10:17:11;;;;;;;0.00;0.00;;;16.10;98.40;;;;;;5050146;28;20022;-77
2021/10/15 10:19:38;;;;;;;0.13;0.13;;;16.00;98.50;;;;;;5051470;28;20025;-78
2021/10/15 10:22:05;;;;;;;0.20;0.20;;;16.00;98.70;;;;;;5049718;28;20017;-77
2021/10/15 10:24:33;;;;;;;1.23;0.73;;;16.10;98.80;;;;;;5052211;28;20032;-77
2021/10/15 10:26:59;;;;;;;0.50;0.40;;;16.20;98.70;;;;;;5051817;28;20017;-77
2021/10/15 10:29:27;;;;;;;0.05;0.05;;;16.70;98.50;;;;;;5053744;28;20029;-77
2021/10/15 10:32:13;;;;;;;0.08;0.08;;;17.00;98.30;;;;;;5051427;28;20094;-77
2021/10/15 10:34:38;;;;;;;0.95;0.20;;;17.30;97.40;;;;;;5049884;28;20388;-79
2021/10/15 10:37:07;;;;;;;1.77;0.82;;;17.40;96.80;;;;;;5052467;28;20086;-78
2021/10/15 10:39:32;;;;;;;0.03;0.03;;;17.60;95.50;;;;;;5050894;28;20036;-77
2021/10/15 10:42:10;;;;;;;0.30;0.30;;;17.50;95.80;;;;;;5047024;28;20025;-77
2021/10/15 10:44:52;;;;;;;9.13;1.50;;;17.40;95.30;;;;;;5051846;28;20032;-78
2021/10/15 10:47:22;;;;;;;0.00;0.00;;;17.50;96.00;;;;;;5043593;28;20033;-79
2021/10/15 10:50:03;;;;;;;1.08;0.22;;;17.60;95.90;;;;;;5052872;28;20029;-78
2021/10/15 10:52:34;;;;;;;0.25;0.25;;;17.60;95.20;;;;;;5054129;28;20109;-77
2021/10/15 10:55:00;;;;;;;0.05;0.05;;;17.80;94.60;;;;;;5053271;28;20067;-77
2021/10/15 10:57:32;;;;;;;0.22;0.22;;;17.70;95.00;;;;;;5051837;28;20124;-79
2021/10/15 11:00:36;;;;;;;1.20;0.45;;;17.90;95.30;;;;;;5053771;28;20022;-79
2021/10/15 11:03:03;;;;;;;0.80;0.52;;;18.10;95.20;;;;;;4995906;28;20096;-78
2021/10/15 11:05:36;;;;;;;0.10;0.10;;;18.10;94.60;;;;;;5011103;28;20026;-78
2021/10/15 11:08:31;;;;;;;0.20;0.20;;;18.20;94.30;;;;;;5007416;28;20038;-78
2021/10/15 11:11:36;;;;;;;0.10;0.10;;;18.30;94.50;;;;;;4991623;28;20050;-77
2021/10/15 11:14:02;;;;;;;0.93;0.47;;;18.20;94.60;;;;;;4969572;28;20130;-78
2021/10/15 11:16:30;;;;;;;3.95;0.40;;;18.30;94.10;;;;;;4972906;28;20154;-79
2021/10/15 11:18:56;;;;;;;0.10;0.10;;;18.50;94.60;;;;;;4955395;28;20046;-77
2021/10/15 11:21:22;;;;;;;0.10;0.10;;;18.40;94.10;;;;;;4970280;28;20095;-78
2021/10/15 11:23:48;;;;;;;0.20;0.20;;;18.50;94.40;;;;;;4971409;28;20076;-79
2021/10/15 11:26:14;;;;;;;0.60;0.20;;;18.60;94.20;;;;;;4965782;28;20064;-78
2021/10/15 11:28:40;;;;;;;0.13;0.13;;;18.50;94.10;;;;;;4954411;28;20027;-78
2021/10/15 11:31:13;;;;;;;0.32;0.30;;;18.50;94.10;;;;;;4971976;28;20047;-77
2021/10/15 11:33:39;;;;;;;;;;;18.50;94.00;;;;;;4972681;28;20038;-78
2021/10/15 11:36:06;;;;;;;0.52;0.50;;;18.40;94.90;;;;;;5009109;28;19905;-79
2021/10/15 11:38:33;;;;;;;0.00;0.00;;;18.40;93.70;;;;;;5010850;28;20049;-78
2021/10/15 11:40:59;;;;;;;0.05;0.05;;;18.30;93.90;;;;;;5010005;28;20024;-78
2021/10/15 11:43:33;;;;;;;0.50;0.50;;;18.40;94.10;;;;;;4991800;28;20029;-77
2021/10/15 11:46:04;;;;;;;4.03;0.65;;;18.60;93.90;;;;;;5048242;28;20032;-77
2021/10/15 11:48:42;;;;;;;0.03;0.03;;;18.60;92.90;;;;;;5051055;28;20025;-77
2021/10/15 11:51:25;;;;;;;0.43;0.13;;;18.80;93.50;;;;;;5048381;28;20043;-77
2021/10/15 11:53:55;;;;;;;;;;;18.70;92.70;;;;;;5052603;28;20025;-77
2021/10/15 11:56:25;;;;;;;0.15;0.15;;;18.50;92.60;;;;;;5051276;28;20398;-78
2021/10/15 11:58:56;;;;;;;0.38;0.25;;;18.40;93.90;;;;;;5051680;28;20029;-78
2021/10/15 12:01:32;;;;;;;2.47;0.30;;;18.60;93.60;;;;;;5051367;28;20099;-76
2021/10/15 12:03:58;;;;;;;0.30;0.30;;;18.80;94.80;;;;;;5051609;28;20021;-77
2021/10/15 12:06:43;;;;;;;0.10;0.10;;;18.90;93.00;;;;;;5049953;28;20110;-74
2021/10/15 12:09:12;;;;;;;0.20;0.20;;;19.00;92.60;;;;;;5042768;28;20021;-76
2021/10/15 12:11:40;;;;;;;0.52;0.20;;;19.10;92.50;;;;;;5051258;28;20029;-75
2021/10/15 12:14:24;;;;;;;1.27;0.22;;;19.50;92.20;;;;;;5049528;28;20036;-74
2021/10/15 12:17:08;;;;;;;0.00;0.00;;;19.80;92.70;;;;;;5048884;28;20079;-75
2021/10/15 12:19:36;;;;;;;0.35;0.25;;;20.00;92.30;;;;;;5049372;28;20029;-74
2021/10/15 12:22:11;;;;;;;0.00;0.00;;;19.90;91.10;;;;;;5050793;28;20082;-79
2021/10/15 12:24:39;;;;;;;0.52;0.52;;;19.90;91.50;;;;;;5046366;28;20127;-77
2021/10/15 12:27:09;;;;;;;0.03;0.03;;;20.00;92.20;;;;;;5051490;28;20025;-76
2021/10/15 12:29:42;;;;;;;0.20;0.10;;;20.30;92.10;;;;;;5050271;28;20021;-76
2021/10/15 12:32:13;;;;;;;;;;;20.10;90.50;;;;;;5051321;28;20025;-77
2021/10/15 12:35:01;;;;;;;0.17;0.17;;;20.20;92.30;;;;;;5048871;28;19970;-79
2021/10/15 12:37:54;;;;;;;0.93;0.88;;;20.00;91.00;;;;;;5051325;28;20029;-79
2021/10/15 12:40:32;;;;;;;0.13;0.10;;;20.30;91.20;;;;;;5048917;28;20036;-77
2021/10/15 12:42:57;;;;;;;1.25;0.20;;;20.20;90.70;;;;;;5052576;28;20051;-79
2021/10/15 12:45:35;;;;;;;0.10;0.10;;;20.30;91.40;;;;;;5050161;28;20235;-80
2021/10/15 12:48:11;;;;;;;0.20;0.10;;;20.20;91.20;;;;;;5051119;28;20021;-79
2021/10/15 12:50:39;;;;;;;0.20;0.15;;;20.20;90.80;;;;;;5050456;28;20039;-77
2021/10/15 12:53:17;;;;;;;0.00;0.00;;;20.00;90.10;;;;;;5049526;28;20060;-78
2021/10/15 12:55:55;;;;;;;0.63;0.50;;;20.00;91.20;;;;;;5049522;28;20497;-78
2021/10/15 12:58:23;;;;;;;0.10;0.10;;;20.00;90.70;;;;;;5042447;28;20063;-78
2021/10/15 13:00:56;;;;;;;0.22;0.22;;;20.10;91.00;;;;;;5048951;28;20046;-78
2021/10/15 13:03:24;;;;;;;0.10;0.10;;;20.10;90.80;;;;;;5051446;28;20527;-77
2021/10/15 13:05:54;;;;;;;0.10;0.00;;;19.90;89.00;;;;;;5048178;28;20029;-77
2021/10/15 13:08:21;;;;;;;3.50;0.40;;;19.80;89.70;;;;;;5050274;28;20029;-78